Time;durP1;ratioP1;P1;durP2;ratioP2;P2;SDS_P1;SDS_P2;PMS_P1;PMS_P2;Temp;Humidity;BMP_temperature;BMP_pressure;BME280_temperature;BME280_humidity;BME280_pressure;Samples;Min_cycle;Max_cycle;Signal;HPM_P1;HPM_P2
2023/05/14 00:02:13;;;;;;;2.63;1.90;;;17.10;1.00;;;;;;5034826;28;20041;-66
2023/05/14 00:04:39;;;;;;;2.22;1.40;;;17.10;1.00;;;;;;5033485;28;20449;-66
2023/05/14 00:07:05;;;;;;;2.03;1.92;;;17.10;1.00;;;;;;5028779;28;20029;-66
2023/05/14 00:09:31;;;;;;;3.05;2.03;;;17.10;1.00;;;;;;5026830;28;20502;-66
2023/05/14 00:11:57;;;;;;;1.73;1.63;;;17.10;1.00;;;;;;5034863;28;20176;-66
2023/05/14 00:14:23;;;;;;;3.10;1.85;;;17.10;1.00;;;;;;5034956;28;20123;-66
2023/05/14 00:16:48;;;;;;;2.40;2.13;;;17.00;1.00;;;;;;5034533;28;20479;-66
2023/05/14 00:19:14;;;;;;;2.13;2.03;;;16.90;1.00;;;;;;5035298;28;20063;-66
2023/05/14 00:21:40;;;;;;;2.17;1.98;;;17.00;1.00;;;;;;5034426;28;20104;-66
2023/05/14 00:24:05;;;;;;;3.78;2.42;;;16.90;1.00;;;;;;5034719;28;20021;-66
2023/05/14 00:26:31;;;;;;;3.00;1.63;;;16.90;1.00;;;;;;5034827;28;20129;-66
2023/05/14 00:28:56;;;;;;;2.22;1.35;;;17.00;1.00;;;;;;5032910;28;20037;-66
2023/05/14 00:31:22;;;;;;;2.08;1.30;;;16.90;1.00;;;;;;5034298;28;20021;-66
2023/05/14 00:33:48;;;;;;;2.47;1.48;;;16.90;1.00;;;;;;5034262;28;20057;-66
2023/05/14 00:36:13;;;;;;;1.95;1.45;;;16.80;1.00;;;;;;5034350;28;20041;-66
2023/05/14 00:38:39;;;;;;;3.17;1.60;;;16.80;1.00;;;;;;5034031;28;20029;-66
2023/05/14 00:41:05;;;;;;;2.78;1.60;;;16.70;1.00;;;;;;5034382;28;20016;-65
2023/05/14 00:43:32;;;;;;;1.73;1.63;;;16.80;1.00;;;;;;5036127;28;20087;-66
2023/05/14 00:45:58;;;;;;;1.60;1.40;;;16.80;1.00;;;;;;5045854;28;20531;-66
2023/05/14 00:48:24;;;;;;;1.90;1.60;;;16.80;1.00;;;;;;5033880;28;20121;-66
2023/05/14 00:50:50;;;;;;;1.63;1.35;;;16.70;1.00;;;;;;5033991;28;20479;-66
2023/05/14 00:53:17;;;;;;;4.35;1.40;;;16.70;1.00;;;;;;5033925;28;20556;-65
2023/05/14 00:55:45;;;;;;;1.35;1.25;;;16.80;1.00;;;;;;5033774;28;20041;-66
2023/05/14 00:58:12;;;;;;;1.35;1.25;;;16.70;1.00;;;;;;5034150;28;20483;-65
2023/05/14 01:00:39;;;;;;;1.30;1.10;;;16.70;1.00;;;;;;5033628;28;20021;-66
2023/05/14 01:03:06;;;;;;;1.75;1.15;;;16.70;1.00;;;;;;5033791;28;20036;-65
2023/05/14 01:06:10;;;;;;;1.60;1.10;;;16.70;1.00;;;;;;5033586;28;20040;-66
2023/05/14 01:08:58;;;;;;;1.60;1.15;;;16.70;1.00;;;;;;5014801;28;20045;-65
2023/05/14 01:11:53;;;;;;;2.05;1.60;;;16.70;1.00;;;;;;5019817;28;20487;-65
2023/05/14 01:14:37;;;;;;;;;;;16.60;1.00;;;;;;5032732;28;20399;-65
2023/05/14 01:17:05;;;;;;;1.67;1.58;;;16.60;1.00;;;;;;5032812;28;19955;-65
2023/05/14 01:19:44;;;;;;;1.65;1.52;;;16.60;1.00;;;;;;5032409;28;20022;-65
2023/05/14 01:22:10;;;;;;;4.28;2.03;;;16.70;1.00;;;;;;5016503;28;20034;-65
2023/05/14 01:24:36;;;;;;;3.97;2.53;;;16.70;1.00;;;;;;5031291;28;20036;-65
2023/05/14 01:27:22;;;;;;;4.32;2.30;;;16.70;1.00;;;;;;5032874;28;20021;-65
2023/05/14 01:30:12;;;;;;;3.28;2.20;;;16.70;1.00;;;;;;5032225;28;20080;-65
2023/05/14 01:32:39;;;;;;;2.33;2.15;;;16.70;1.00;;;;;;5031592;28;20033;-65
2023/05/14 01:35:06;;;;;;;2.72;2.13;;;16.70;1.00;;;;;;5031884;28;20018;-65
2023/05/14 01:37:33;;;;;;;3.53;3.10;;;16.70;1.00;;;;;;5032035;28;20025;-65
2023/05/14 01:39:59;;;;;;;2.63;2.28;;;16.70;1.00;;;;;;5031711;28;20028;-65
2023/05/14 01:42:25;;;;;;;5.28;3.03;;;16.70;1.00;;;;;;5032302;28;20118;-65
2023/05/14 01:44:51;;;;;;;3.72;3.08;;;16.70;1.00;;;;;;5045633;28;20024;-65
2023/05/14 01:47:17;;;;;;;2.85;2.63;;;16.70;1.00;;;;;;5030589;28;20113;-65
2023/05/14 01:49:43;;;;;;;2.53;2.33;;;16.70;1.00;;;;;;5028128;28;20045;-65
2023/05/14 01:52:08;;;;;;;3.08;2.72;;;16.70;1.00;;;;;;5032231;28;20021;-65
2023/05/14 01:54:34;;;;;;;3.92;3.30;;;16.70;1.00;;;;;;5032266;28;20112;-65
2023/05/14 01:56:59;;;;;;;3.38;3.05;;;16.60;1.00;;;;;;5031837;28;20053;-65
2023/05/14 01:59:25;;;;;;;4.10;2.60;;;16.70;1.00;;;;;;5032663;28;20025;-65
2023/05/14 02:01:51;;;;;;;2.72;2.33;;;16.60;1.00;;;;;;5034516;28;20025;-65
2023/05/14 02:04:16;;;;;;;2.72;2.53;;;16.60;1.00;;;;;;5045375;28;20360;-65
2023/05/14 02:06:42;;;;;;;2.20;2.00;;;16.60;1.00;;;;;;5031563;28;20364;-65
2023/05/14 02:09:08;;;;;;;2.60;2.40;;;16.60;1.00;;;;;;5032801;28;20483;-65
2023/05/14 02:11:33;;;;;;;2.90;2.30;;;16.60;1.00;;;;;;5032739;28;20044;-65
2023/05/14 02:13:59;;;;;;;1.85;1.75;;;16.60;1.00;;;;;;5031497;28;20521;-65
2023/05/14 02:16:25;;;;;;;2.50;2.30;;;16.60;1.00;;;;;;5031431;28;20387;-65
2023/05/14 02:18:50;;;;;;;2.53;2.20;;;16.60;1.00;;;;;;5032924;28;20034;-65
2023/05/14 02:21:16;;;;;;;4.15;2.20;;;16.60;1.00;;;;;;5032872;28;20030;-65
2023/05/14 02:23:43;;;;;;;2.30;2.00;;;16.60;1.00;;;;;;5031502;28;20029;-65
2023/05/14 02:26:09;;;;;;;2.65;2.17;;;16.60;1.00;;;;;;5032903;28;20030;-64
2023/05/14 02:28:35;;;;;;;4.15;2.95;;;16.60;1.00;;;;;;5032832;28;20072;-64
2023/05/14 02:31:01;;;;;;;4.43;3.42;;;16.60;1.00;;;;;;5032921;28;20037;-65
2023/05/14 02:33:27;;;;;;;4.32;3.15;;;16.50;1.00;;;;;;5036327;28;20395;-64
2023/05/14 02:35:53;;;;;;;6.18;3.65;;;16.50;1.00;;;;;;5036582;28;20029;-63
2023/05/14 02:38:19;;;;;;;5.88;3.70;;;16.40;1.00;;;;;;5036525;28;20025;-63
2023/05/14 02:40:45;;;;;;;6.25;3.05;;;16.30;1.00;;;;;;5036516;28;20029;-63
2023/05/14 02:43:10;;;;;;;3.20;2.00;;;16.20;1.00;;;;;;5036278;28;20053;-63
2023/05/14 02:45:36;;;;;;;3.08;2.05;;;16.30;1.00;;;;;;5036280;28;20391;-63
2023/05/14 02:48:01;;;;;;;2.00;1.75;;;16.20;1.00;;;;;;5036306;28;20394;-63
2023/05/14 02:50:27;;;;;;;2.95;2.75;;;16.20;1.00;;;;;;5036421;28;20057;-62
2023/05/14 02:52:53;;;;;;;3.35;2.60;;;16.20;1.00;;;;;;5036346;28;20122;-62
2023/05/14 02:55:18;;;;;;;3.22;2.78;;;16.10;1.00;;;;;;5036155;28;20033;-62
2023/05/14 02:57:44;;;;;;;4.65;2.78;;;16.10;1.00;;;;;;5036142;28;20025;-62
2023/05/14 03:00:10;;;;;;;2.85;2.45;;;16.00;1.00;;;;;;5036385;28;20025;-62
2023/05/14 03:02:36;;;;;;;3.83;3.08;;;15.90;1.00;;;;;;5035937;28;20076;-62
2023/05/14 03:05:02;;;;;;;4.20;3.78;;;15.90;1.00;;;;;;5034668;28;20037;-62
2023/05/14 03:07:27;;;;;;;3.47;3.17;;;15.80;1.00;;;;;;5035856;28;20101;-62
2023/05/14 03:09:53;;;;;;;3.78;3.47;;;15.80;1.00;;;;;;5035759;28;20134;-62
2023/05/14 03:12:19;;;;;;;4.57;4.15;;;15.80;1.00;;;;;;5035923;28;20037;-62
2023/05/14 03:14:45;;;;;;;4.13;3.67;;;15.80;1.00;;;;;;5024574;28;20040;-62
2023/05/14 03:17:23;;;;;;;5.15;4.65;;;15.80;1.00;;;;;;5036106;28;20021;-62
2023/05/14 03:19:48;;;;;;;4.88;3.88;;;15.80;1.00;;;;;;5035631;28;20022;-62
2023/05/14 03:22:14;;;;;;;5.57;4.72;;;15.80;1.00;;;;;;5035696;28;20383;-62
2023/05/14 03:24:40;;;;;;;6.20;5.38;;;15.80;1.00;;;;;;5035611;28;20379;-62
2023/05/14 03:27:06;;;;;;;5.60;5.05;;;15.80;1.00;;;;;;5035918;28;20429;-62
2023/05/14 03:29:31;;;;;;;5.55;4.97;;;15.80;1.00;;;;;;5035443;28;20038;-62
2023/05/14 03:31:57;;;;;;;5.35;4.95;;;15.80;1.00;;;;;;5035434;28;20025;-62
2023/05/14 03:34:23;;;;;;;7.57;5.18;;;15.80;1.00;;;;;;5035541;28;20104;-62
2023/05/14 03:36:48;;;;;;;7.22;5.50;;;15.90;1.00;;;;;;5035215;28;20071;-62
2023/05/14 03:39:18;;;;;;;6.47;5.88;;;15.80;1.00;;;;;;5035351;28;20035;-63
2023/05/14 03:41:45;;;;;;;7.38;5.35;;;15.80;1.00;;;;;;5035026;28;20061;-62
2023/05/14 03:44:10;;;;;;;6.88;6.30;;;15.80;1.00;;;;;;5034506;28;20025;-62
2023/05/14 03:46:36;;;;;;;7.47;6.55;;;15.70;1.00;;;;;;5035151;28;20075;-62
2023/05/14 03:49:02;;;;;;;8.27;7.00;;;15.80;1.00;;;;;;5024604;28;20029;-62
2023/05/14 03:51:28;;;;;;;7.72;6.97;;;15.70;1.00;;;;;;5035077;28;20095;-62
2023/05/14 03:53:54;;;;;;;7.60;6.63;;;15.80;1.00;;;;;;5024135;28;20112;-62
2023/05/14 03:56:19;;;;;;;9.80;8.43;;;15.80;1.00;;;;;;5035188;28;20343;-62
2023/05/14 03:58:45;;;;;;;9.75;8.75;;;15.80;1.00;;;;;;5033360;28;20021;-62
2023/05/14 04:01:11;;;;;;;8.48;7.50;;;15.70;1.00;;;;;;5035012;28;20112;-62
2023/05/14 04:03:36;;;;;;;9.55;8.63;;;15.70;1.00;;;;;;5034904;28;20051;-63
2023/05/14 04:06:02;;;;;;;12.02;9.93;;;15.70;1.00;;;;;;5034919;28;20021;-62
2023/05/14 04:08:28;;;;;;;10.27;9.27;;;15.70;1.00;;;;;;5034857;28;20164;-62
2023/05/14 04:10:53;;;;;;;11.95;8.80;;;15.60;1.00;;;;;;5034696;28;20095;-62
2023/05/14 04:13:19;;;;;;;9.48;8.57;;;15.60;1.00;;;;;;5041891;28;20033;-62
2023/05/14 04:15:44;;;;;;;10.15;8.38;;;15.50;1.00;;;;;;5042031;28;20029;-62
2023/05/14 04:18:10;;;;;;;8.52;7.72;;;15.30;1.00;;;;;;5034891;28;20048;-62
2023/05/14 04:20:36;;;;;;;7.07;6.38;;;15.30;1.00;;;;;;5031174;28;20033;-62
2023/05/14 04:23:02;;;;;;;7.82;6.47;;;15.30;1.00;;;;;;5032089;28;20112;-62
2023/05/14 04:25:27;;;;;;;7.88;6.50;;;15.20;1.00;;;;;;5024786;28;20037;-62
2023/05/14 04:27:53;;;;;;;6.30;5.38;;;15.20;1.00;;;;;;5032660;28;20491;-62
2023/05/14 04:30:19;;;;;;;7.75;5.88;;;15.20;1.00;;;;;;5033076;28;20128;-63
2023/05/14 04:32:44;;;;;;;6.57;5.82;;;15.20;1.00;;;;;;5034343;28;20033;-62
2023/05/14 04:35:11;;;;;;;5.63;5.10;;;15.20;1.00;;;;;;5034531;28;20022;-62
2023/05/14 04:37:37;;;;;;;6.50;5.90;;;15.20;1.00;;;;;;5034205;28;20029;-62
2023/05/14 04:40:05;;;;;;;4.95;4.55;;;15.30;1.00;;;;;;5034462;28;20029;-62
2023/05/14 04:42:31;;;;;;;5.40;4.82;;;15.30;1.00;;;;;;5020350;28;20061;-62
2023/05/14 04:44:57;;;;;;;5.15;4.50;;;15.30;1.00;;;;;;5032910;28;20029;-62
2023/05/14 04:47:23;;;;;;;6.28;5.57;;;15.40;1.00;;;;;;5032712;28;20026;-62
2023/05/14 04:49:48;;;;;;;6.40;5.78;;;15.30;1.00;;;;;;5034070;28;20044;-62
2023/05/14 04:52:14;;;;;;;5.07;4.57;;;15.40;1.00;;;;;;5033904;28;20065;-62
2023/05/14 04:54:40;;;;;;;5.00;4.50;;;15.40;1.00;;;;;;5034106;28;20033;-62
2023/05/14 04:57:06;;;;;;;6.93;5.55;;;15.40;1.00;;;;;;5034111;28;20391;-63
2023/05/14 04:59:31;;;;;;;5.50;5.00;;;15.50;1.00;;;;;;5034081;28;20478;-62
2023/05/14 05:01:57;;;;;;;6.57;5.05;;;15.50;1.00;;;;;;5033749;28;20376;-62
2023/05/14 05:04:23;;;;;;;5.72;4.90;;;15.60;1.00;;;;;;5033776;28;20388;-62
2023/05/14 05:06:49;;;;;;;7.20;4.78;;;15.60;1.00;;;;;;5032835;28;20051;-63
2023/05/14 05:09:16;;;;;;;5.50;4.18;;;15.60;1.00;;;;;;5014129;28;20460;-62
2023/05/14 05:11:42;;;;;;;5.10;4.40;;;15.60;1.00;;;;;;5031618;28;20030;-62
2023/05/14 05:14:07;;;;;;;6.07;4.30;;;15.60;1.00;;;;;;5032422;28;20490;-63
2023/05/14 05:16:33;;;;;;;4.53;3.70;;;15.60;1.00;;;;;;5033452;28;20029;-62
2023/05/14 05:18:59;;;;;;;4.72;4.28;;;15.60;1.00;;;;;;5033759;28;20021;-62
2023/05/14 05:21:25;;;;;;;4.03;3.55;;;15.60;1.00;;;;;;5033434;28;20518;-62
2023/05/14 05:23:50;;;;;;;4.63;3.67;;;15.60;1.00;;;;;;5033769;28;20487;-62
2023/05/14 05:26:16;;;;;;;4.90;3.72;;;15.60;1.00;;;;;;5033432;28;20026;-63
2023/05/14 05:28:42;;;;;;;4.13;3.80;;;15.60;1.00;;;;;;5033502;28;20083;-63
2023/05/14 05:31:07;;;;;;;3.63;3.30;;;15.70;1.00;;;;;;5033275;28;20520;-63
2023/05/14 05:33:34;;;;;;;4.13;3.60;;;15.70;1.00;;;;;;5033557;28;20067;-63
2023/05/14 05:36:00;;;;;;;5.68;3.83;;;15.70;1.00;;;;;;5033301;28;20029;-63
2023/05/14 05:38:25;;;;;;;4.28;3.88;;;15.60;1.00;;;;;;5033093;28;20021;-63
2023/05/14 05:40:51;;;;;;;4.07;3.00;;;15.60;1.00;;;;;;5033291;28;20025;-63
2023/05/14 05:43:17;;;;;;;3.65;3.35;;;15.70;1.00;;;;;;5032886;28;20513;-63
2023/05/14 05:45:44;;;;;;;5.80;3.72;;;15.70;1.00;;;;;;5031870;28;20216;-63
2023/05/14 05:48:10;;;;;;;3.95;3.55;;;15.70;1.00;;;;;;5030223;28;20387;-63
2023/05/14 05:50:36;;;;;;;4.90;4.03;;;15.70;1.00;;;;;;5038170;28;20037;-63
2023/05/14 05:53:02;;;;;;;4.28;3.88;;;15.80;1.00;;;;;;5041835;28;20108;-63
2023/05/14 05:55:29;;;;;;;4.97;4.45;;;15.80;1.00;;;;;;5032900;28;20551;-63
2023/05/14 05:57:55;;;;;;;9.70;4.25;;;15.80;1.00;;;;;;5033285;28;20112;-63
2023/05/14 06:00:21;;;;;;;7.72;4.10;;;15.80;1.00;;;;;;5032923;28;20064;-63
2023/05/14 06:02:46;;;;;;;3.17;2.88;;;15.90;1.00;;;;;;5032891;28;20071;-63
2023/05/14 06:05:12;;;;;;;2.08;1.98;;;15.80;1.00;;;;;;5033163;28;20033;-63
2023/05/14 06:07:38;;;;;;;2.95;2.45;;;15.70;1.00;;;;;;5036477;28;20021;-63
2023/05/14 06:10:05;;;;;;;2.67;2.10;;;15.80;1.00;;;;;;5039335;28;20033;-63
2023/05/14 06:12:30;;;;;;;2.72;1.90;;;15.80;1.00;;;;;;5039430;28;20021;-63
2023/05/14 06:14:56;;;;;;;4.22;2.08;;;15.80;1.00;;;;;;5049905;28;20044;-62
2023/05/14 06:17:25;;;;;;;3.13;1.80;;;15.90;1.00;;;;;;5026296;28;20051;-63
2023/05/14 06:19:51;;;;;;;3.95;2.33;;;15.90;1.00;;;;;;5039257;28;20024;-62
2023/05/14 06:22:17;;;;;;;3.08;2.22;;;15.80;1.00;;;;;;5039602;28;20021;-62
2023/05/14 06:24:43;;;;;;;2.05;1.90;;;15.90;1.00;;;;;;5039359;28;20388;-62
2023/05/14 06:27:12;;;;;;;4.47;2.30;;;16.00;1.00;;;;;;5039468;28;20028;-63
2023/05/14 06:29:38;;;;;;;3.60;2.33;;;16.00;1.00;;;;;;5039112;28;20043;-63
2023/05/14 06:32:04;;;;;;;2.35;2.00;;;16.00;1.00;;;;;;5039222;28;20327;-62
2023/05/14 06:34:30;;;;;;;2.20;2.00;;;16.10;1.00;;;;;;5039536;28;20034;-63
2023/05/14 06:36:56;;;;;;;3.53;2.67;;;16.10;1.00;;;;;;5039119;28;20048;-63
2023/05/14 06:39:23;;;;;;;3.33;2.65;;;16.20;1.00;;;;;;5039373;28;20071;-63
2023/05/14 06:41:49;;;;;;;3.03;2.72;;;16.40;1.00;;;;;;5038992;28;20554;-63
2023/05/14 06:44:16;;;;;;;3.92;3.47;;;16.40;1.00;;;;;;5039247;28;20468;-63
2023/05/14 06:46:41;;;;;;;4.63;3.28;;;16.30;1.00;;;;;;5039005;28;20072;-63
2023/05/14 06:49:07;;;;;;;4.32;3.60;;;16.50;1.00;;;;;;5037861;28;20438;-63
2023/05/14 06:51:33;;;;;;;5.20;3.70;;;16.50;1.00;;;;;;5039397;28;20067;-62
2023/05/14 06:53:58;;;;;;;4.47;4.00;;;16.60;1.00;;;;;;5038970;28;20028;-62
2023/05/14 06:56:24;;;;;;;3.90;3.60;;;16.60;1.00;;;;;;5039141;28;20033;-63
2023/05/14 06:58:49;;;;;;;4.43;4.03;;;16.70;1.00;;;;;;5038945;28;20021;-63
2023/05/14 07:01:16;;;;;;;3.53;3.22;;;16.70;1.00;;;;;;5039139;28;20036;-63
2023/05/14 07:03:44;;;;;;;3.30;3.00;;;16.50;1.00;;;;;;5025900;28;20030;-63
2023/05/14 07:06:10;;;;;;;4.35;3.95;;;16.50;1.00;;;;;;5038999;28;20018;-63
2023/05/14 07:08:36;;;;;;;5.47;3.40;;;16.60;1.00;;;;;;5038791;28;20064;-63
2023/05/14 07:11:01;;;;;;;4.13;2.80;;;16.60;1.00;;;;;;5038735;28;20021;-63
2023/05/14 07:13:27;;;;;;;3.05;2.38;;;16.60;1.00;;;;;;5038947;28;20083;-63
2023/05/14 07:15:54;;;;;;;2.47;2.28;;;16.50;1.00;;;;;;5052783;28;20029;-63
2023/05/14 07:18:21;;;;;;;3.17;2.38;;;16.50;1.00;;;;;;5037385;28;20017;-63
2023/05/14 07:20:47;;;;;;;3.45;3.08;;;16.60;1.00;;;;;;5034135;28;20030;-62
2023/05/14 07:23:12;;;;;;;4.93;3.38;;;16.70;1.00;;;;;;5035706;28;20021;-63
2023/05/14 07:25:38;;;;;;;5.72;3.78;;;16.80;1.00;;;;;;5035824;28;20369;-63
2023/05/14 07:28:03;;;;;;;2.83;2.42;;;16.70;1.00;;;;;;5035311;28;20026;-63
2023/05/14 07:30:55;;;;;;;2.30;1.83;;;16.70;1.00;;;;;;5034190;28;20022;-63
2023/05/14 07:33:21;;;;;;;2.38;2.00;;;16.60;1.00;;;;;;5035814;28;20087;-62
2023/05/14 07:35:46;;;;;;;2.35;2.00;;;16.60;1.00;;;;;;5035547;28;20075;-60
2023/05/14 07:38:12;;;;;;;2.88;2.35;;;16.70;1.00;;;;;;5035476;28;20383;-59
2023/05/14 07:40:38;;;;;;;3.10;2.53;;;16.80;1.00;;;;;;5035417;28;20364;-63
2023/05/14 07:43:03;;;;;;;3.55;2.75;;;16.80;1.00;;;;;;5035258;28;20403;-49
2023/05/14 07:45:29;;;;;;;3.97;2.83;;;16.80;1.00;;;;;;5035459;28;20014;-61
2023/05/14 07:47:54;;;;;;;2.45;2.22;;;16.90;1.00;;;;;;5035557;28;20029;-59
2023/05/14 07:50:21;;;;;;;4.15;2.20;;;16.70;1.00;;;;;;5035098;28;20029;-64
2023/05/14 07:52:47;;;;;;;3.20;2.50;;;16.80;1.00;;;;;;5035427;28;20422;-61
2023/05/14 07:55:12;;;;;;;4.32;3.30;;;16.90;1.00;;;;;;5034959;28;20034;-53
2023/05/14 07:57:38;;;;;;;4.47;3.33;;;17.00;1.00;;;;;;5035185;28;20021;-62
2023/05/14 08:00:08;;;;;;;4.07;3.08;;;17.10;1.00;;;;;;5035303;28;20041;-66
2023/05/14 08:02:34;;;;;;;3.60;2.88;;;17.20;1.00;;;;;;5034932;28;20041;-63
2023/05/14 08:05:00;;;;;;;2.92;2.63;;;17.30;1.00;;;;;;5034927;28;20475;-69
2023/05/14 08:07:28;;;;;;;2.50;2.30;;;17.40;1.00;;;;;;5034999;28;20025;-64
2023/05/14 08:09:53;;;;;;;2.63;2.30;;;17.50;1.00;;;;;;5030500;28;20041;-61
2023/05/14 08:12:19;;;;;;;2.08;1.90;;;17.50;1.00;;;;;;5034652;28;20030;-61
2023/05/14 08:14:45;;;;;;;2.80;2.28;;;17.40;1.00;;;;;;5034841;28;20029;-61
2023/05/14 08:17:11;;;;;;;2.25;1.88;;;17.50;1.00;;;;;;5020652;28;20468;-61
2023/05/14 08:19:36;;;;;;;2.33;1.70;;;17.50;1.00;;;;;;5021098;28;20040;-65
2023/05/14 08:22:02;;;;;;;1.88;1.05;;;17.50;1.00;;;;;;5034721;28;20034;-51
2023/05/14 08:24:28;;;;;;;1.50;1.20;;;17.30;1.00;;;;;;5034502;28;20048;-58
2023/05/14 08:26:54;;;;;;;0.88;0.88;;;17.50;1.00;;;;;;5034555;28;20029;-63
2023/05/14 08:29:20;;;;;;;3.25;1.15;;;17.50;1.00;;;;;;5034195;28;20045;-61
2023/05/14 08:31:46;;;;;;;1.35;1.25;;;17.60;1.00;;;;;;5034291;28;20040;-61
2023/05/14 08:34:11;;;;;;;1.35;1.27;;;17.50;1.00;;;;;;5034366;28;20033;-61
2023/05/14 08:36:40;;;;;;;1.85;1.50;;;17.60;1.00;;;;;;5034546;28;20044;-61
2023/05/14 08:39:06;;;;;;;1.70;1.60;;;17.50;1.00;;;;;;5034263;28;20353;-61
2023/05/14 08:41:32;;;;;;;2.92;1.58;;;17.50;1.00;;;;;;5027383;28;20034;-61
2023/05/14 08:44:13;;;;;;;2.47;1.70;;;17.40;1.00;;;;;;5030762;28;20056;-62
2023/05/14 08:46:40;;;;;;;3.05;1.77;;;17.50;1.00;;;;;;5026513;28;20030;-61
2023/05/14 08:49:31;;;;;;;2.85;2.25;;;17.40;1.00;;;;;;5034096;28;20104;-61
2023/05/14 08:51:58;;;;;;;2.92;1.60;;;17.50;1.00;;;;;;5033987;28;20029;-61
2023/05/14 08:54:25;;;;;;;1.30;1.20;;;17.50;1.00;;;;;;5034034;28;20037;-61
2023/05/14 08:56:52;;;;;;;1.63;1.17;;;17.50;1.00;;;;;;5034059;28;20052;-61
2023/05/14 08:59:18;;;;;;;1.60;1.50;;;17.40;1.00;;;;;;5034143;28;20056;-61
2023/05/14 09:01:47;;;;;;;1.48;1.10;;;17.50;1.00;;;;;;5033842;28;20512;-61
2023/05/14 09:04:20;;;;;;;2.42;1.30;;;17.70;1.00;;;;;;5033785;28;20551;-61
2023/05/14 09:06:48;;;;;;;2.15;1.42;;;17.60;1.00;;;;;;5033925;28;20022;-61
2023/05/14 09:09:15;;;;;;;1.30;1.10;;;17.70;1.00;;;;;;5033804;28;20037;-61
2023/05/14 09:11:51;;;;;;;1.30;1.17;;;17.70;1.00;;;;;;5033461;28;20029;-61
2023/05/14 09:14:17;;;;;;;1.50;1.20;;;17.80;1.00;;;;;;5032084;28;20029;-61
2023/05/14 09:16:44;;;;;;;2.05;0.93;;;17.90;1.00;;;;;;5031277;28;20036;-61
2023/05/14 09:19:11;;;;;;;2.38;0.60;;;17.80;1.00;;;;;;5033304;28;20103;-61
2023/05/14 09:21:38;;;;;;;1.92;0.60;;;17.90;1.00;;;;;;5033295;28;20033;-61
2023/05/14 09:24:03;;;;;;;1.77;0.45;;;17.90;1.00;;;;;;5033289;28;20040;-61
2023/05/14 09:26:31;;;;;;;0.43;0.30;;;18.10;1.00;;;;;;5033371;28;20026;-61
2023/05/14 09:29:00;;;;;;;0.85;0.70;;;18.10;1.00;;;;;;5033546;28;20064;-61
2023/05/14 09:31:26;;;;;;;0.63;0.50;;;18.20;1.00;;;;;;5033341;28;20104;-61
2023/05/14 09:33:52;;;;;;;0.90;0.70;;;18.20;1.00;;;;;;5033060;28;20044;-61
2023/05/14 09:36:19;;;;;;;0.95;0.77;;;18.20;1.00;;;;;;5033680;28;20018;-61
2023/05/14 09:38:44;;;;;;;1.38;0.93;;;18.20;1.00;;;;;;5031194;28;20041;-61
2023/05/14 09:41:10;;;;;;;0.60;0.50;;;18.30;1.00;;;;;;5022538;28;20365;-61
2023/05/14 09:43:36;;;;;;;0.93;0.80;;;18.20;1.00;;;;;;5032779;28;20482;-62
2023/05/14 09:46:02;;;;;;;1.00;0.73;;;18.20;1.00;;;;;;5033523;28;20399;-61
2023/05/14 09:48:28;;;;;;;2.17;0.80;;;18.40;1.00;;;;;;5033222;28;20471;-61
2023/05/14 09:50:54;;;;;;;1.23;0.47;;;18.50;1.00;;;;;;5032890;28;20037;-61
2023/05/14 09:53:19;;;;;;;1.85;0.70;;;18.40;1.00;;;;;;5033142;28;20075;-61
2023/05/14 09:55:45;;;;;;;0.85;0.80;;;18.40;1.00;;;;;;5029657;28;20107;-61
2023/05/14 09:58:14;;;;;;;1.60;0.60;;;18.30;1.00;;;;;;5022546;28;20025;-61
2023/05/14 10:00:44;;;;;;;5.15;0.93;;;18.40;1.00;;;;;;5032840;28;20026;-61
2023/05/14 10:03:12;;;;;;;0.68;0.60;;;18.40;1.00;;;;;;5033170;28;20120;-61
2023/05/14 10:05:40;;;;;;;0.98;0.70;;;18.30;1.00;;;;;;5032812;28;20032;-61
2023/05/14 10:08:13;;;;;;;0.63;0.60;;;18.40;1.00;;;;;;5032607;28;20028;-61
2023/05/14 10:10:39;;;;;;;1.23;0.70;;;18.50;1.00;;;;;;5032794;28;20052;-61
2023/05/14 10:13:14;;;;;;;2.13;0.88;;;18.50;1.00;;;;;;5032644;28;20467;-61
2023/05/14 10:15:47;;;;;;;2.72;1.45;;;18.60;1.00;;;;;;5032808;28;20018;-61
2023/05/14 10:18:17;;;;;;;1.88;0.90;;;18.70;1.00;;;;;;5032949;28;20383;-61
2023/05/14 10:20:52;;;;;;;1.27;0.68;;;18.80;1.00;;;;;;5032762;28;20025;-61
2023/05/14 10:23:17;;;;;;;;;;;18.90;1.00;;;;;;5033190;28;20476;-61
2023/05/14 10:25:44;;;;;;;0.60;0.60;;;19.00;1.00;;;;;;5043758;28;19911;-61
2023/05/14 10:28:10;;;;;;;1.42;0.70;;;19.00;1.00;;;;;;5035422;28;20049;-59
2023/05/14 10:30:45;;;;;;;0.68;0.63;;;19.00;1.00;;;;;;5032879;28;20037;-60
2023/05/14 10:33:12;;;;;;;;;;;19.10;1.00;;;;;;5033050;28;20056;-61
2023/05/14 10:35:57;;;;;;;1.60;0.90;;;19.20;1.00;;;;;;5032711;28;19934;-61
2023/05/14 10:38:29;;;;;;;1.63;0.70;;;19.30;1.00;;;;;;5032457;28;20022;-61
2023/05/14 10:41:11;;;;;;;2.33;0.82;;;19.30;1.00;;;;;;5032539;28;20044;-61
2023/05/14 10:43:39;;;;;;;1.30;0.55;;;19.30;1.00;;;;;;5031202;28;20056;-61
2023/05/14 10:46:06;;;;;;;2.17;0.65;;;19.30;1.00;;;;;;5032589;28;20080;-61
2023/05/14 10:48:32;;;;;;;2.05;0.60;;;19.40;1.00;;;;;;5032304;28;20030;-61
2023/05/14 10:50:59;;;;;;;6.57;0.88;;;19.50;1.00;;;;;;5032501;28;20538;-61
2023/05/14 10:53:41;;;;;;;1.67;0.60;;;19.60;1.00;;;;;;5034625;28;20080;-61
2023/05/14 10:56:11;;;;;;;2.85;0.88;;;19.70;1.00;;;;;;5036494;28;20036;-61
2023/05/14 10:58:42;;;;;;;1.48;1.13;;;19.90;1.00;;;;;;5036060;28;20024;-61
2023/05/14 11:01:10;;;;;;;2.08;0.88;;;19.90;1.00;;;;;;5036159;28;20060;-61
2023/05/14 11:03:41;;;;;;;1.02;0.90;;;20.00;1.00;;;;;;5035925;28;20026;-61
2023/05/14 11:06:08;;;;;;;0.55;0.52;;;20.10;1.00;;;;;;5034716;28;20025;-61
2023/05/14 11:08:33;;;;;;;2.22;0.70;;;20.20;1.00;;;;;;5035727;28;20567;-61
2023/05/14 11:10:59;;;;;;;2.00;0.60;;;20.40;1.00;;;;;;5035940;28;20097;-61
2023/05/14 11:13:26;;;;;;;1.17;0.77;;;20.20;1.00;;;;;;5036219;28;20413;-61
2023/05/14 11:15:52;;;;;;;2.33;0.50;;;20.20;1.00;;;;;;5035763;28;20485;-62
2023/05/14 11:18:32;;;;;;;1.50;0.63;;;20.20;1.00;;;;;;5035794;28;20048;-61
2023/05/14 11:21:01;;;;;;;1.33;0.50;;;20.00;1.00;;;;;;5034375;28;20034;-61
2023/05/14 11:23:27;;;;;;;1.52;0.65;;;19.90;1.00;;;;;;5035943;28;20364;-61
2023/05/14 11:25:55;;;;;;;1.65;0.70;;;19.80;1.00;;;;;;5047861;28;20513;-61
2023/05/14 11:28:25;;;;;;;1.05;0.95;;;19.70;1.00;;;;;;5036893;28;20022;-61
2023/05/14 11:30:52;;;;;;;2.03;0.70;;;19.60;1.00;;;;;;5035876;28;20037;-61
2023/05/14 11:33:19;;;;;;;2.08;1.20;;;19.50;1.00;;;;;;5034351;28;20052;-61
2023/05/14 11:35:45;;;;;;;2.53;1.02;;;19.40;1.00;;;;;;5035584;28;20117;-61
2023/05/14 11:38:15;;;;;;;2.25;1.20;;;19.30;1.00;;;;;;5033969;28;20119;-61
2023/05/14 11:40:42;;;;;;;1.33;0.60;;;19.20;1.00;;;;;;5035394;28;20030;-61
2023/05/14 11:43:08;;;;;;;3.00;0.40;;;19.20;1.00;;;;;;5035180;28;20076;-61
2023/05/14 11:45:35;;;;;;;0.95;0.75;;;19.10;1.00;;;;;;5035277;28;20075;-61
2023/05/14 11:48:00;;;;;;;1.95;0.90;;;19.30;1.00;;;;;;5035525;28;20033;-61
2023/05/14 11:50:26;;;;;;;1.17;0.60;;;19.50;1.00;;;;;;5033608;28;20517;-61
2023/05/14 11:52:56;;;;;;;2.08;0.60;;;19.90;1.00;;;;;;5035237;28;20025;-62
2023/05/14 11:55:21;;;;;;;2.00;0.75;;;20.40;1.00;;;;;;5035224;28;20083;-61
2023/05/14 11:57:47;;;;;;;0.52;0.50;;;20.60;1.00;;;;;;5035116;28;20022;-62
2023/05/14 12:00:19;;;;;;;0.70;0.50;;;20.60;1.00;;;;;;5034889;28;20124;-62
2023/05/14 12:02:47;;;;;;;0.85;0.63;;;20.60;1.00;;;;;;5035166;28;20472;-61
2023/05/14 12:05:13;;;;;;;0.38;0.38;;;20.60;1.00;;;;;;5034256;28;20072;-62
2023/05/14 12:07:39;;;;;;;1.25;0.50;;;21.00;1.00;;;;;;5034832;28;20037;-62
2023/05/14 12:10:05;;;;;;;0.80;0.73;;;21.80;1.00;;;;;;5034818;28;20038;-61
2023/05/14 12:12:35;;;;;;;0.75;0.52;;;22.60;1.00;;;;;;5034248;28;20425;-61
2023/05/14 12:15:01;;;;;;;2.95;1.00;;;23.70;1.00;;;;;;5025868;28;20025;-62
2023/05/14 12:17:27;;;;;;;0.55;0.45;;;24.70;1.00;;;;;;5034660;28;20093;-61
2023/05/14 12:19:53;;;;;;;1.15;0.60;;;23.80;1.00;;;;;;5034881;28;20036;-61
2023/05/14 12:22:21;;;;;;;1.48;0.70;;;24.20;1.00;;;;;;5034522;28;20021;-62
2023/05/14 12:24:58;;;;;;;2.10;0.60;;;24.20;1.00;;;;;;5037674;28;20396;-62
2023/05/14 12:27:25;;;;;;;1.42;0.47;;;25.70;99.90;;;;;;5043954;28;20108;-62
2023/05/14 12:30:02;;;;;;;0.63;0.50;;;25.40;99.90;;;;;;5027782;28;20043;-61
2023/05/14 12:32:31;;;;;;;2.88;0.80;;;28.90;99.90;;;;;;5034447;28;20037;-61
2023/05/14 12:34:56;;;;;;;1.45;0.60;;;28.40;99.90;;;;;;5034394;28;20042;-61
2023/05/14 12:37:22;;;;;;;1.55;0.88;;;27.50;99.90;;;;;;5034254;28;20028;-61
2023/05/14 12:39:48;;;;;;;0.88;0.77;;;27.10;99.90;;;;;;5034407;28;20443;-61
2023/05/14 12:42:15;;;;;;;1.25;0.80;;;26.10;99.90;;;;;;5033738;28;20533;-61
2023/05/14 12:44:40;;;;;;;0.57;0.55;;;25.20;99.90;;;;;;5059377;28;20026;-61
2023/05/14 12:47:06;;;;;;;0.60;0.50;;;23.90;99.90;;;;;;5034333;28;20083;-61
2023/05/14 12:49:32;;;;;;;1.13;0.60;;;23.70;1.00;;;;;;5034003;28;20041;-61
2023/05/14 12:51:58;;;;;;;0.50;0.40;;;25.60;99.90;;;;;;5033982;28;20084;-61
2023/05/14 12:54:23;;;;;;;0.65;0.60;;;27.10;99.90;;;;;;5025102;28;20026;-60
2023/05/14 12:56:49;;;;;;;0.88;0.70;;;27.60;99.90;;;;;;5033786;28;20022;-55
2023/05/14 12:59:15;;;;;;;0.50;0.50;;;26.50;99.90;;;;;;5033931;28;20022;-61